createdAt,value
2019-01-30T00:00:51.666Z,997.46
2019-01-30T00:01:51.643Z,997.49
2019-01-30T00:02:51.633Z,997.46
2019-01-30T00:03:51.626Z,997.42
2019-01-30T00:04:51.611Z,997.44
2019-01-30T00:05:51.611Z,997.40
2019-01-30T00:06:51.590Z,997.43
2019-01-30T00:07:51.580Z,997.37
2019-01-30T00:08:51.582Z,997.37
2019-01-30T00:09:51.562Z,997.41
2019-01-30T00:10:51.559Z,997.38
2019-01-30T00:11:51.539Z,997.39
2019-01-30T00:12:51.527Z,997.37
2019-01-30T00:13:51.519Z,997.38
2019-01-30T00:14:51.508Z,997.41
2019-01-30T00:15:56.420Z,997.39
2019-01-30T00:16:52.483Z,997.41
2019-01-30T00:17:51.474Z,997.37
2019-01-30T00:18:51.463Z,997.37
2019-01-30T00:19:51.453Z,997.33
2019-01-30T00:20:51.451Z,997.33
2019-01-30T00:21:51.434Z,997.30
2019-01-30T00:22:51.421Z,997.32
2019-01-30T00:23:51.410Z,997.33
2019-01-30T00:24:51.400Z,997.27
2019-01-30T00:25:51.401Z,997.33
2019-01-30T00:26:51.381Z,997.31
2019-01-30T00:27:51.370Z,997.32
2019-01-30T00:28:51.358Z,997.33
2019-01-30T00:29:51.346Z,997.28
2019-01-30T00:30:51.344Z,997.27
2019-01-30T00:31:51.324Z,997.29
2019-01-30T00:32:51.314Z,997.27
2019-01-30T00:33:51.307Z,997.24
2019-01-30T00:34:51.293Z,997.19
2019-01-30T00:35:51.292Z,997.22
2019-01-30T00:36:51.273Z,997.24
2019-01-30T00:37:51.263Z,997.22
2019-01-30T00:38:51.254Z,997.22
2019-01-30T00:39:51.242Z,997.23
2019-01-30T00:40:51.240Z,997.24
2019-01-30T00:41:51.219Z,997.24
2019-01-30T00:42:51.208Z,997.20
2019-01-30T00:43:51.199Z,997.18
2019-01-30T00:44:51.189Z,997.22
2019-01-30T00:45:51.186Z,997.22
2019-01-30T00:46:51.165Z,997.19
2019-01-30T00:47:51.156Z,997.23
2019-01-30T00:48:51.144Z,997.18
2019-01-30T00:49:51.133Z,997.21
2019-01-30T00:50:51.130Z,997.23
2019-01-30T00:51:51.111Z,997.18
2019-01-30T00:52:51.105Z,997.16
2019-01-30T00:53:51.092Z,997.18
2019-01-30T00:54:51.079Z,997.26
2019-01-30T00:55:51.078Z,997.17
2019-01-30T00:56:51.057Z,997.20
2019-01-30T00:57:51.047Z,997.20
2019-01-30T00:58:51.036Z,997.17
2019-01-30T00:59:51.025Z,997.15
2019-01-30T01:00:51.030Z,997.17
2019-01-30T01:01:51.004Z,997.15
2019-01-30T01:02:51.004Z,997.12
2019-01-30T01:03:50.984Z,997.19
2019-01-30T01:04:50.974Z,997.12
2019-01-30T01:05:50.970Z,997.16
2019-01-30T01:06:50.952Z,997.17
2019-01-30T01:07:50.939Z,997.17
2019-01-30T01:08:50.932Z,997.16
2019-01-30T01:09:50.918Z,997.16
2019-01-30T01:10:50.916Z,997.18
2019-01-30T01:11:50.896Z,997.15
2019-01-30T01:12:50.888Z,997.14
2019-01-30T01:13:50.878Z,997.15
2019-01-30T01:14:50.864Z,997.16
2019-01-30T01:15:50.863Z,997.13
2019-01-30T01:16:50.843Z,997.13
2019-01-30T01:17:50.833Z,997.16
2019-01-30T01:18:50.828Z,997.20
2019-01-30T01:19:50.905Z,997.12
2019-01-30T01:20:50.811Z,997.12
2019-01-30T01:21:50.788Z,997.10
2019-01-30T01:22:50.782Z,997.07
2019-01-30T01:23:50.769Z,997.11
2019-01-30T01:24:50.756Z,997.07
2019-01-30T01:25:50.756Z,997.03
2019-01-30T01:26:50.738Z,997.09
2019-01-30T01:27:50.728Z,997.05
2019-01-30T01:28:50.716Z,997.05
2019-01-30T01:29:50.706Z,997.04
2019-01-30T01:30:50.706Z,997.01
2019-01-30T01:31:50.683Z,996.95
2019-01-30T01:32:50.725Z,996.98
2019-01-30T01:33:50.665Z,997.00
2019-01-30T01:34:50.651Z,996.94
2019-01-30T01:35:50.647Z,997.02
2019-01-30T01:36:50.628Z,996.99
2019-01-30T01:37:50.622Z,997.03
2019-01-30T01:38:50.608Z,996.97
2019-01-30T01:39:51.038Z,996.96
2019-01-30T01:40:50.593Z,996.98
2019-01-30T01:41:50.575Z,996.97
2019-01-30T01:42:50.565Z,996.95
2019-01-30T01:43:50.552Z,996.98
2019-01-30T01:44:50.542Z,996.98
2019-01-30T01:45:50.539Z,996.94
2019-01-30T01:46:50.522Z,996.96
2019-01-30T01:47:50.513Z,996.97
2019-01-30T01:48:50.505Z,996.97
2019-01-30T01:49:50.488Z,996.92
2019-01-30T01:50:50.486Z,996.93
2019-01-30T01:51:50.467Z,996.91
2019-01-30T01:52:50.459Z,996.96
2019-01-30T01:53:50.447Z,996.93
2019-01-30T01:54:50.435Z,996.95
2019-01-30T01:55:50.438Z,996.94
2019-01-30T01:56:50.415Z,996.93
2019-01-30T01:57:50.402Z,996.93
2019-01-30T01:58:50.394Z,996.89
2019-01-30T01:59:50.380Z,996.95
2019-01-30T02:00:50.382Z,996.90
2019-01-30T02:01:50.358Z,996.85
2019-01-30T02:02:50.349Z,996.90
2019-01-30T02:03:50.339Z,996.88
2019-01-30T02:04:50.329Z,996.88
2019-01-30T02:05:50.331Z,996.86
2019-01-30T02:06:50.308Z,996.81
2019-01-30T02:07:50.295Z,996.77
2019-01-30T02:08:50.283Z,996.78
2019-01-30T02:09:50.273Z,996.77
2019-01-30T02:10:50.271Z,996.82
2019-01-30T02:11:50.254Z,996.80
2019-01-30T02:12:50.248Z,996.83
2019-01-30T02:13:50.230Z,996.81
2019-01-30T02:14:50.219Z,996.80
2019-01-30T02:15:50.248Z,996.81
2019-01-30T02:16:50.202Z,996.79
2019-01-30T02:17:50.191Z,996.81
2019-01-30T02:18:50.180Z,996.77
2019-01-30T02:19:50.165Z,996.83
2019-01-30T02:20:50.157Z,996.75
2019-01-30T02:21:50.154Z,996.73
2019-01-30T02:22:50.137Z,996.79
2019-01-30T02:23:50.226Z,996.71
2019-01-30T02:24:50.113Z,996.70
2019-01-30T02:25:50.102Z,996.70
2019-01-30T02:26:50.102Z,996.71
2019-01-30T02:27:50.084Z,996.72
2019-01-30T02:28:50.069Z,996.67
2019-01-30T02:29:50.066Z,996.67
2019-01-30T02:30:50.049Z,996.71
2019-01-30T02:31:50.045Z,996.68
2019-01-30T02:32:50.027Z,996.69
2019-01-30T02:33:50.021Z,996.63
2019-01-30T02:34:50.008Z,996.61
2019-01-30T02:35:49.995Z,996.71
2019-01-30T02:36:50.000Z,996.68
2019-01-30T02:37:50.075Z,996.70
2019-01-30T02:38:49.964Z,996.68
2019-01-30T02:39:49.953Z,996.68
2019-01-30T02:40:49.941Z,996.66
2019-01-30T02:41:49.938Z,996.65
2019-01-30T02:42:49.932Z,996.64
2019-01-30T02:43:49.911Z,996.63
2019-01-30T02:44:49.903Z,996.54
2019-01-30T02:45:49.889Z,996.62
2019-01-30T02:46:49.891Z,996.55
2019-01-30T02:47:49.872Z,996.54
2019-01-30T02:48:49.857Z,996.60
2019-01-30T02:49:49.844Z,996.58
2019-01-30T02:50:49.835Z,996.55
2019-01-30T02:51:49.835Z,996.55
2019-01-30T02:52:49.816Z,996.56
2019-01-30T02:53:49.804Z,996.57
2019-01-30T02:54:49.791Z,996.60
2019-01-30T02:55:49.782Z,996.58
2019-01-30T02:56:49.780Z,996.54
2019-01-30T02:57:49.763Z,996.56
2019-01-30T02:58:49.747Z,996.57
2019-01-30T02:59:49.736Z,996.56
2019-01-30T03:00:58.973Z,996.58
2019-01-30T03:01:50.727Z,996.57
2019-01-30T03:02:49.706Z,996.57
2019-01-30T03:03:49.694Z,996.55
2019-01-30T03:04:49.688Z,996.56
2019-01-30T03:05:49.686Z,996.55
2019-01-30T03:06:49.670Z,996.54
2019-01-30T03:07:49.672Z,996.54
2019-01-30T03:08:49.641Z,996.57
2019-01-30T03:09:49.662Z,996.54
2019-01-30T03:10:49.622Z,996.56
2019-01-30T03:11:49.617Z,996.53
2019-01-30T03:12:49.600Z,996.51
2019-01-30T03:13:49.588Z,996.53
2019-01-30T03:14:49.578Z,996.53
2019-01-30T03:15:49.567Z,996.52
2019-01-30T03:16:49.566Z,996.54
2019-01-30T03:17:49.544Z,996.57
2019-01-30T03:18:49.534Z,996.53
2019-01-30T03:19:49.522Z,996.57
2019-01-30T03:20:49.514Z,996.50
2019-01-30T03:21:49.511Z,996.56
2019-01-30T03:22:49.502Z,996.54
2019-01-30T03:23:49.569Z,996.52
2019-01-30T03:24:49.471Z,996.55
2019-01-30T03:25:49.458Z,996.53
2019-01-30T03:26:49.496Z,996.55
2019-01-30T03:27:49.441Z,996.56
2019-01-30T03:28:49.428Z,996.50
2019-01-30T03:29:49.417Z,996.50
2019-01-30T03:30:49.405Z,996.55
2019-01-30T03:31:49.408Z,996.47
2019-01-30T03:32:49.384Z,996.51
2019-01-30T03:33:49.373Z,996.47
2019-01-30T03:34:49.364Z,996.47
2019-01-30T03:35:49.351Z,996.49
2019-01-30T03:36:49.356Z,996.48
2019-01-30T03:37:49.329Z,996.50
2019-01-30T03:38:49.331Z,996.45
2019-01-30T03:39:49.309Z,996.47
2019-01-30T03:40:49.299Z,996.50
2019-01-30T03:41:49.297Z,996.47
2019-01-30T03:42:49.276Z,996.51
2019-01-30T03:43:49.267Z,996.51
2019-01-30T03:44:49.254Z,996.44
2019-01-30T03:45:49.270Z,996.46
2019-01-30T03:46:49.242Z,996.44
2019-01-30T03:47:49.222Z,996.47
2019-01-30T03:48:49.217Z,996.45
2019-01-30T03:49:49.204Z,996.43
2019-01-30T03:50:49.193Z,996.40
2019-01-30T03:51:49.189Z,996.41
2019-01-30T03:52:49.172Z,996.40
2019-01-30T03:53:49.159Z,996.47
2019-01-30T03:54:49.226Z,996.40
2019-01-30T03:55:49.139Z,996.38
2019-01-30T03:56:49.141Z,996.39
2019-01-30T03:57:49.121Z,996.34
2019-01-30T03:58:49.106Z,996.36
2019-01-30T03:59:49.098Z,996.39
2019-01-30T04:00:49.088Z,996.36
2019-01-30T04:01:49.086Z,996.38
2019-01-30T04:02:49.068Z,996.40
2019-01-30T04:03:49.059Z,996.41
2019-01-30T04:04:49.049Z,996.41
2019-01-30T04:05:49.036Z,996.34
2019-01-30T04:06:49.032Z,996.42
2019-01-30T04:07:49.014Z,996.41
2019-01-30T04:08:49.005Z,996.35
2019-01-30T04:09:48.991Z,996.33
2019-01-30T04:10:48.982Z,996.35
2019-01-30T04:11:48.979Z,996.29
2019-01-30T04:12:48.962Z,996.42
2019-01-30T04:13:48.953Z,996.39
2019-01-30T04:14:48.945Z,996.34
2019-01-30T04:15:48.929Z,996.34
2019-01-30T04:16:48.927Z,996.39
2019-01-30T04:17:48.913Z,996.30
2019-01-30T04:18:48.897Z,996.31
2019-01-30T04:19:48.887Z,996.27
2019-01-30T04:20:48.874Z,996.22
2019-01-30T04:21:48.877Z,996.24
2019-01-30T04:22:48.854Z,996.20
2019-01-30T04:23:48.843Z,996.20
2019-01-30T04:24:48.834Z,996.13
2019-01-30T04:25:48.824Z,996.15
2019-01-30T04:26:48.839Z,996.11
2019-01-30T04:27:48.805Z,996.12
2019-01-30T04:28:48.792Z,996.09
2019-01-30T04:29:48.784Z,996.11
2019-01-30T04:30:48.771Z,996.11
2019-01-30T04:31:48.760Z,996.11
2019-01-30T04:32:48.763Z,996.09
2019-01-30T04:33:48.737Z,996.14
2019-01-30T04:34:48.734Z,996.07
2019-01-30T04:35:48.717Z,996.05
2019-01-30T04:36:48.707Z,996.07
2019-01-30T04:37:48.709Z,996.04
2019-01-30T04:38:48.687Z,996.13
2019-01-30T04:39:48.682Z,996.14
2019-01-30T04:40:48.668Z,996.09
2019-01-30T04:41:48.659Z,996.12
2019-01-30T04:42:48.656Z,996.16
2019-01-30T04:43:48.635Z,996.11
2019-01-30T04:44:48.627Z,996.12
2019-01-30T04:45:48.618Z,996.13
2019-01-30T04:46:48.601Z,996.08
2019-01-30T04:47:48.605Z,996.09
2019-01-30T04:48:48.582Z,996.10
2019-01-30T04:49:48.595Z,996.07
2019-01-30T04:50:48.571Z,996.05
2019-01-30T04:51:48.553Z,996.04
2019-01-30T04:52:48.551Z,996.06
2019-01-30T04:53:48.531Z,996.05
2019-01-30T04:54:48.521Z,996.04
2019-01-30T04:55:48.509Z,995.98
2019-01-30T04:56:48.518Z,996.03
2019-01-30T04:57:48.504Z,996.03
2019-01-30T04:58:48.477Z,995.99
2019-01-30T04:59:48.467Z,996.05
2019-01-30T05:00:48.458Z,995.98
2019-01-30T05:01:49.598Z,996.04
2019-01-30T05:02:48.445Z,996.04
2019-01-30T05:03:48.578Z,996.00
2019-01-30T05:04:48.416Z,996.03
2019-01-30T05:05:48.405Z,995.99
2019-01-30T05:06:48.396Z,996.00
2019-01-30T05:07:48.394Z,995.90
2019-01-30T05:08:48.384Z,995.95
2019-01-30T05:09:48.364Z,995.94
2019-01-30T05:10:48.353Z,995.91
2019-01-30T05:11:48.345Z,995.92
2019-01-30T05:12:48.345Z,995.93
2019-01-30T05:13:48.326Z,995.84
2019-01-30T05:14:48.313Z,995.87
2019-01-30T05:15:48.306Z,995.85
2019-01-30T05:16:48.291Z,995.84
2019-01-30T05:17:48.291Z,995.87
2019-01-30T05:18:48.270Z,995.85
2019-01-30T05:19:48.265Z,995.88
2019-01-30T05:20:48.261Z,995.86
2019-01-30T05:21:48.248Z,995.87
2019-01-30T05:22:48.238Z,995.81
2019-01-30T05:23:48.219Z,995.86
2019-01-30T05:24:48.312Z,995.81
2019-01-30T05:25:48.217Z,995.79
2019-01-30T05:26:48.187Z,995.80
2019-01-30T05:27:48.238Z,995.83
2019-01-30T05:28:48.168Z,995.80
2019-01-30T05:29:48.157Z,995.80
2019-01-30T05:30:48.150Z,995.77
2019-01-30T05:31:48.151Z,995.77
2019-01-30T05:32:48.126Z,995.79
2019-01-30T05:33:48.124Z,995.74
2019-01-30T05:34:48.105Z,995.80
2019-01-30T05:35:48.094Z,995.77
2019-01-30T05:36:48.091Z,995.75
2019-01-30T05:37:51.128Z,995.77
2019-01-30T05:38:48.073Z,995.76
2019-01-30T05:39:48.053Z,995.77
2019-01-30T05:40:48.043Z,995.75
2019-01-30T05:41:48.042Z,995.74
2019-01-30T05:42:48.158Z,995.74
2019-01-30T05:43:48.022Z,995.81
2019-01-30T05:44:48.003Z,995.80
2019-01-30T05:45:47.992Z,995.81
2019-01-30T05:46:47.982Z,995.77
2019-01-30T05:47:47.973Z,995.83
2019-01-30T05:48:48.101Z,995.85
2019-01-30T05:49:47.950Z,995.87
2019-01-30T05:50:47.939Z,995.84
2019-01-30T05:51:47.931Z,995.84
2019-01-30T05:52:47.919Z,995.87
2019-01-30T05:53:47.908Z,995.87
2019-01-30T05:54:47.912Z,995.91
2019-01-30T05:55:47.888Z,995.92
2019-01-30T05:56:47.880Z,995.86
2019-01-30T05:57:47.872Z,995.88
2019-01-30T05:58:47.859Z,995.94
2019-01-30T05:59:47.855Z,995.87
2019-01-30T06:00:47.837Z,995.93
2019-01-30T06:01:47.826Z,995.93
2019-01-30T06:02:47.817Z,995.92
2019-01-30T06:03:47.879Z,995.90
2019-01-30T06:04:47.977Z,995.87
2019-01-30T06:05:47.785Z,995.87
2019-01-30T06:06:47.776Z,995.90
2019-01-30T06:07:47.764Z,995.87
2019-01-30T06:08:47.754Z,995.84
2019-01-30T06:09:47.754Z,995.92
2019-01-30T06:10:47.857Z,995.87
2019-01-30T06:11:47.729Z,995.88
2019-01-30T06:12:47.714Z,995.91
2019-01-30T06:13:47.703Z,995.94
2019-01-30T06:14:47.705Z,995.98
2019-01-30T06:15:47.683Z,996.01
2019-01-30T06:16:47.673Z,996.03
2019-01-30T06:17:47.660Z,996.02
2019-01-30T06:18:47.652Z,996.03
2019-01-30T06:19:47.650Z,996.09
2019-01-30T06:20:47.630Z,996.08
2019-01-30T06:21:47.620Z,996.04
2019-01-30T06:22:47.618Z,996.06
2019-01-30T06:23:47.604Z,996.05
2019-01-30T06:24:47.616Z,996.01
2019-01-30T06:25:47.582Z,996.03
2019-01-30T06:26:47.574Z,996.02
2019-01-30T06:27:47.562Z,996.04
2019-01-30T06:28:47.551Z,996.08
2019-01-30T06:29:47.538Z,996.12
2019-01-30T06:30:47.538Z,996.08
2019-01-30T06:31:47.522Z,996.07
2019-01-30T06:32:47.506Z,996.06
2019-01-30T06:33:47.497Z,996.02
2019-01-30T06:34:47.488Z,996.09
2019-01-30T06:35:47.548Z,996.05
2019-01-30T06:36:47.467Z,996.03
2019-01-30T06:37:47.458Z,996.03
2019-01-30T06:38:47.447Z,996.04
2019-01-30T06:39:47.437Z,996.06
2019-01-30T06:40:47.434Z,996.03
2019-01-30T06:41:47.417Z,996.03
2019-01-30T06:42:47.407Z,996.03
2019-01-30T06:43:47.395Z,996.02
2019-01-30T06:44:47.384Z,996.04
2019-01-30T06:45:47.382Z,996.01
2019-01-30T06:46:47.363Z,995.98
2019-01-30T06:47:47.355Z,996.01
2019-01-30T06:48:47.343Z,995.98
2019-01-30T06:49:47.333Z,995.98
2019-01-30T06:50:47.331Z,996.02
2019-01-30T06:51:47.312Z,996.00
2019-01-30T06:52:47.302Z,995.97
2019-01-30T06:53:47.291Z,995.99
2019-01-30T06:54:47.283Z,996.03
2019-01-30T06:55:47.281Z,996.04
2019-01-30T06:56:47.261Z,996.04
2019-01-30T06:57:47.251Z,996.01
2019-01-30T06:58:47.240Z,996.04
2019-01-30T06:59:47.230Z,996.02
2019-01-30T07:00:47.230Z,996.00
2019-01-30T07:01:47.209Z,996.02
2019-01-30T07:02:47.204Z,996.01
2019-01-30T07:03:47.188Z,995.96
2019-01-30T07:04:47.178Z,995.98
2019-01-30T07:05:47.207Z,995.97
2019-01-30T07:06:47.158Z,995.98
2019-01-30T07:07:47.149Z,995.97
2019-01-30T07:08:47.137Z,995.98
2019-01-30T07:09:47.127Z,995.99
2019-01-30T07:10:47.120Z,996.00
2019-01-30T07:11:47.120Z,996.03
2019-01-30T07:12:47.096Z,996.01
2019-01-30T07:13:47.097Z,996.01
2019-01-30T07:14:47.075Z,996.01
2019-01-30T07:15:47.065Z,995.99
2019-01-30T07:16:47.063Z,996.00
2019-01-30T07:17:47.043Z,995.94
2019-01-30T07:18:47.036Z,995.93
2019-01-30T07:19:47.025Z,996.00
2019-01-30T07:20:47.019Z,995.95
2019-01-30T07:21:47.015Z,995.98
2019-01-30T07:22:46.993Z,995.95
2019-01-30T07:23:46.984Z,996.01
2019-01-30T07:24:46.972Z,996.00
2019-01-30T07:25:46.961Z,995.93
2019-01-30T07:26:46.959Z,995.93
2019-01-30T07:27:46.940Z,995.98
2019-01-30T07:28:46.929Z,995.96
2019-01-30T07:29:46.919Z,995.90
2019-01-30T07:30:46.909Z,995.92
2019-01-30T07:31:46.906Z,995.93
2019-01-30T07:32:46.886Z,995.93
2019-01-30T07:33:46.875Z,995.94
2019-01-30T07:34:46.865Z,995.97
2019-01-30T07:35:46.858Z,995.97
2019-01-30T07:36:46.853Z,995.99
2019-01-30T07:37:46.833Z,995.95
2019-01-30T07:38:46.822Z,995.97
2019-01-30T07:39:46.813Z,995.97
2019-01-30T07:40:46.801Z,995.88
2019-01-30T07:41:46.799Z,995.93
2019-01-30T07:42:46.780Z,995.90
2019-01-30T07:43:46.769Z,995.88
2019-01-30T07:44:50.922Z,995.85
2019-01-30T07:45:46.747Z,995.90
2019-01-30T07:46:46.775Z,995.89
2019-01-30T07:47:46.725Z,995.88
2019-01-30T07:48:46.718Z,995.89
2019-01-30T07:49:46.704Z,995.93
2019-01-30T07:50:46.693Z,995.94
2019-01-30T07:51:46.687Z,995.91
2019-01-30T07:52:46.687Z,995.88
2019-01-30T07:53:46.662Z,995.92
2019-01-30T07:54:46.654Z,995.95
2019-01-30T07:55:46.639Z,995.93
2019-01-30T07:56:46.630Z,995.93
2019-01-30T07:57:46.626Z,995.96
2019-01-30T07:58:46.607Z,995.94
2019-01-30T07:59:46.598Z,995.89
2019-01-30T08:00:46.595Z,995.85
2019-01-30T08:01:46.576Z,995.91
2019-01-30T08:02:52.995Z,995.92
2019-01-30T08:03:47.554Z,995.92
2019-01-30T08:04:46.610Z,995.95
2019-01-30T08:05:46.536Z,995.89
2019-01-30T08:06:46.530Z,995.96
2019-01-30T08:07:46.523Z,995.94
2019-01-30T08:08:46.529Z,995.89
2019-01-30T08:09:46.491Z,995.83
2019-01-30T08:10:46.482Z,995.87
2019-01-30T08:11:46.474Z,995.85
2019-01-30T08:12:46.467Z,995.87
2019-01-30T08:13:46.449Z,995.87
2019-01-30T08:14:46.438Z,995.92
2019-01-30T08:15:46.430Z,995.84
2019-01-30T08:16:48.090Z,995.86
2019-01-30T08:17:46.418Z,995.88
2019-01-30T08:18:46.396Z,995.85
2019-01-30T08:19:46.388Z,995.83
2019-01-30T08:20:46.376Z,995.83
2019-01-30T08:21:46.364Z,995.84
2019-01-30T08:22:46.391Z,995.80
2019-01-30T08:23:46.369Z,995.86
2019-01-30T08:24:46.573Z,995.89
2019-01-30T08:25:46.559Z,995.84
2019-01-30T08:26:46.659Z,995.82
2019-01-30T08:27:46.626Z,995.90
2019-01-30T08:28:46.409Z,995.84
2019-01-30T08:29:46.402Z,995.87
2019-01-30T08:30:46.607Z,995.88
2019-01-30T08:31:46.549Z,995.87
2019-01-30T08:32:46.583Z,995.85
2019-01-30T08:33:46.237Z,995.85
2019-01-30T08:34:46.228Z,995.85
2019-01-30T08:35:46.221Z,995.85
2019-01-30T08:36:46.218Z,995.89
2019-01-30T08:37:46.209Z,995.90
2019-01-30T08:38:46.185Z,995.89
2019-01-30T08:39:46.178Z,995.84
2019-01-30T08:40:46.164Z,995.87
2019-01-30T08:41:46.158Z,995.82
2019-01-30T08:42:46.151Z,995.86
2019-01-30T08:43:46.132Z,995.86
2019-01-30T08:44:47.033Z,995.94
2019-01-30T08:45:46.110Z,995.86
2019-01-30T08:46:46.101Z,995.83
2019-01-30T08:47:46.130Z,995.88
2019-01-30T08:48:46.079Z,995.88
2019-01-30T08:49:46.069Z,995.87
2019-01-30T08:50:46.058Z,995.87
2019-01-30T08:51:46.049Z,995.87
2019-01-30T08:52:46.038Z,995.87
2019-01-30T08:53:46.034Z,995.86
2019-01-30T08:54:46.014Z,995.87
2019-01-30T08:55:46.007Z,995.89
2019-01-30T08:56:53.019Z,995.88
2019-01-30T08:57:46.984Z,995.86
2019-01-30T08:58:45.980Z,995.90
2019-01-30T08:59:45.961Z,995.81
2019-01-30T09:00:45.953Z,995.74
2019-01-30T09:01:45.942Z,995.74
2019-01-30T09:02:45.932Z,995.78
2019-01-30T09:03:45.937Z,995.77
2019-01-30T09:04:45.907Z,995.78
2019-01-30T09:05:45.910Z,995.79
2019-01-30T09:06:45.888Z,995.82
2019-01-30T09:07:45.875Z,995.79
2019-01-30T09:08:45.873Z,995.79
2019-01-30T09:09:45.854Z,995.82
2019-01-30T09:10:45.843Z,995.84
2019-01-30T09:11:45.831Z,995.84
2019-01-30T09:12:45.820Z,995.82
2019-01-30T09:13:45.823Z,995.80
2019-01-30T09:14:45.801Z,995.83
2019-01-30T09:15:45.790Z,995.76
2019-01-30T09:16:45.782Z,995.89
2019-01-30T09:17:45.768Z,995.87
2019-01-30T09:18:45.766Z,995.82
2019-01-30T09:19:45.747Z,995.91
2019-01-30T09:20:45.736Z,995.89
2019-01-30T09:21:45.725Z,995.85
2019-01-30T09:22:45.717Z,995.85
2019-01-30T09:23:45.753Z,995.85
2019-01-30T09:24:45.693Z,995.85
2019-01-30T09:25:45.682Z,995.81
2019-01-30T09:26:45.673Z,995.84
2019-01-30T09:27:45.665Z,995.81
2019-01-30T09:28:45.659Z,995.85
2019-01-30T09:29:45.641Z,995.92
2019-01-30T09:30:45.629Z,995.93
2019-01-30T09:31:45.618Z,995.96
2019-01-30T09:32:45.645Z,995.89
2019-01-30T09:33:45.596Z,995.97
2019-01-30T09:34:45.651Z,995.95
2019-01-30T09:35:45.598Z,995.91
2019-01-30T09:36:45.564Z,995.91
2019-01-30T09:37:45.573Z,995.87
2019-01-30T09:38:45.594Z,995.96
2019-01-30T09:39:45.542Z,995.96
2019-01-30T09:40:45.520Z,995.95
2019-01-30T09:41:45.511Z,995.93
2019-01-30T09:42:45.859Z,995.93
2019-01-30T09:43:45.489Z,995.93
2019-01-30T09:44:45.491Z,995.93
2019-01-30T09:45:45.467Z,995.97
2019-01-30T09:46:45.459Z,995.98
2019-01-30T09:47:45.466Z,995.91
2019-01-30T09:48:45.436Z,995.94
2019-01-30T09:49:45.517Z,995.93
2019-01-30T09:50:45.413Z,995.95
2019-01-30T09:51:45.412Z,995.89
2019-01-30T09:52:45.400Z,995.88
2019-01-30T09:53:45.381Z,995.92
2019-01-30T09:54:45.379Z,995.88
2019-01-30T09:55:45.359Z,995.89
2019-01-30T09:56:45.351Z,995.82
2019-01-30T09:57:45.337Z,995.76
2019-01-30T09:58:45.331Z,995.81
2019-01-30T09:59:45.324Z,995.81
2019-01-30T10:00:45.306Z,995.77
2019-01-30T10:01:45.298Z,995.72
2019-01-30T10:02:45.286Z,995.78
2019-01-30T10:03:45.274Z,995.77
2019-01-30T10:04:45.311Z,995.69
2019-01-30T10:05:45.252Z,995.73
2019-01-30T10:06:45.241Z,995.73
2019-01-30T10:07:45.246Z,995.70
2019-01-30T10:08:45.222Z,995.74
2019-01-30T10:09:45.214Z,995.73
2019-01-30T10:10:45.208Z,995.72
2019-01-30T10:11:45.188Z,995.67
2019-01-30T10:12:45.176Z,995.66
2019-01-30T10:13:45.165Z,995.60
2019-01-30T10:14:45.159Z,995.69
2019-01-30T10:15:45.155Z,995.63
2019-01-30T10:16:45.135Z,995.57
2019-01-30T10:17:45.123Z,995.64
2019-01-30T10:18:45.113Z,995.58
2019-01-30T10:19:45.171Z,995.55
2019-01-30T10:20:45.099Z,995.55
2019-01-30T10:21:45.079Z,995.61
2019-01-30T10:22:45.069Z,995.56
2019-01-30T10:23:45.058Z,995.56
2019-01-30T10:24:45.049Z,995.51
2019-01-30T10:25:45.050Z,995.54
2019-01-30T10:26:45.032Z,995.52
2019-01-30T10:27:45.015Z,995.48
2019-01-30T10:28:45.005Z,995.51
2019-01-30T10:29:45.000Z,995.46
2019-01-30T10:30:44.996Z,995.47
2019-01-30T10:31:44.971Z,995.51
2019-01-30T10:32:44.961Z,995.50
2019-01-30T10:33:46.631Z,995.51
2019-01-30T10:34:44.940Z,995.53
2019-01-30T10:35:44.944Z,995.47
2019-01-30T10:36:44.920Z,995.53
2019-01-30T10:37:44.908Z,995.51
2019-01-30T10:38:44.900Z,995.50
2019-01-30T10:39:44.886Z,995.50
2019-01-30T10:40:44.897Z,995.43
2019-01-30T10:41:44.869Z,995.42
2019-01-30T10:42:44.853Z,995.45
2019-01-30T10:43:44.842Z,995.39
2019-01-30T10:44:44.831Z,995.43
2019-01-30T10:45:44.829Z,995.31
2019-01-30T10:46:44.811Z,995.42
2019-01-30T10:47:44.800Z,995.34
2019-01-30T10:48:44.788Z,995.39
2019-01-30T10:49:44.779Z,995.38
2019-01-30T10:50:44.778Z,995.36
2019-01-30T10:51:44.757Z,995.28
2019-01-30T10:52:44.746Z,995.25
2019-01-30T10:53:44.736Z,995.21
2019-01-30T10:54:44.725Z,995.33
2019-01-30T10:55:44.723Z,995.31
2019-01-30T10:56:44.705Z,995.21
2019-01-30T10:57:44.694Z,995.19
2019-01-30T10:58:44.683Z,995.26
2019-01-30T10:59:44.673Z,995.20
2019-01-30T11:00:44.669Z,995.18
2019-01-30T11:01:44.705Z,995.14
2019-01-30T11:02:46.483Z,995.17
2019-01-30T11:03:44.629Z,995.13
2019-01-30T11:04:44.623Z,995.10
2019-01-30T11:05:44.658Z,995.10
2019-01-30T11:06:44.598Z,995.14
2019-01-30T11:07:44.587Z,995.11
2019-01-30T11:08:44.576Z,995.11
2019-01-30T11:09:44.566Z,995.12
2019-01-30T11:10:44.581Z,995.00
2019-01-30T11:11:44.550Z,995.16
2019-01-30T11:12:44.534Z,994.99
2019-01-30T11:13:44.527Z,995.10
2019-01-30T11:14:44.514Z,995.03
2019-01-30T11:15:44.503Z,995.08
2019-01-30T11:16:44.503Z,995.05
2019-01-30T11:17:44.483Z,995.05
2019-01-30T11:18:44.471Z,995.05
2019-01-30T11:19:45.488Z,995.04
2019-01-30T11:20:44.450Z,995.07
2019-01-30T11:21:44.450Z,995.01
2019-01-30T11:22:44.428Z,994.97
2019-01-30T11:23:44.418Z,995.00
2019-01-30T11:24:44.413Z,995.01
2019-01-30T11:25:44.397Z,994.94
2019-01-30T11:26:44.394Z,994.97
2019-01-30T11:27:44.375Z,994.99
2019-01-30T11:28:44.366Z,994.99
2019-01-30T11:29:44.361Z,994.93
2019-01-30T11:30:44.344Z,994.94
2019-01-30T11:31:44.341Z,995.02
2019-01-30T11:32:44.322Z,994.93
2019-01-30T11:33:44.311Z,994.91
2019-01-30T11:34:44.303Z,994.91
2019-01-30T11:35:44.290Z,994.95
2019-01-30T11:36:44.382Z,994.98
2019-01-30T11:37:44.270Z,994.93
2019-01-30T11:38:44.258Z,994.93
2019-01-30T11:39:44.249Z,994.89
2019-01-30T11:40:44.237Z,994.86
2019-01-30T11:41:44.235Z,994.87
2019-01-30T11:42:44.223Z,994.91
2019-01-30T11:43:44.206Z,994.90
2019-01-30T11:44:44.195Z,994.93
2019-01-30T11:45:44.185Z,994.90
2019-01-30T11:46:44.196Z,994.96
2019-01-30T11:47:44.164Z,994.86
2019-01-30T11:48:44.152Z,994.94
2019-01-30T11:49:44.142Z,994.85
2019-01-30T11:50:44.132Z,994.87
2019-01-30T11:51:44.129Z,994.83
2019-01-30T11:52:44.110Z,994.82
2019-01-30T11:53:44.099Z,994.79
2019-01-30T11:54:44.089Z,994.79
2019-01-30T11:55:44.081Z,994.78
2019-01-30T11:56:44.075Z,994.73
2019-01-30T11:57:44.058Z,994.71
2019-01-30T11:58:44.046Z,994.72
2019-01-30T11:59:44.035Z,994.72
2019-01-30T12:00:44.024Z,994.74
2019-01-30T12:01:44.025Z,994.75
2019-01-30T12:02:47.953Z,994.77
2019-01-30T12:03:43.994Z,994.71
2019-01-30T12:04:43.984Z,994.69
2019-01-30T12:05:43.972Z,994.74
2019-01-30T12:06:43.970Z,994.68
2019-01-30T12:07:43.955Z,994.62
2019-01-30T12:08:43.941Z,994.65
2019-01-30T12:09:43.930Z,994.69
2019-01-30T12:10:43.919Z,994.64
2019-01-30T12:11:43.918Z,994.60
2019-01-30T12:12:43.898Z,994.67
2019-01-30T12:13:43.887Z,994.58
2019-01-30T12:14:43.876Z,994.58
2019-01-30T12:15:43.866Z,994.57
2019-01-30T12:16:43.864Z,994.50
2019-01-30T12:17:43.847Z,994.52
2019-01-30T12:18:43.835Z,994.52
2019-01-30T12:19:43.823Z,994.52
2019-01-30T12:20:43.815Z,994.49
2019-01-30T12:21:43.814Z,994.45
2019-01-30T12:22:43.795Z,994.41
2019-01-30T12:23:43.782Z,994.35
2019-01-30T12:24:43.770Z,994.34
2019-01-30T12:25:43.759Z,994.46
2019-01-30T12:26:43.784Z,994.39
2019-01-30T12:27:43.744Z,994.37
2019-01-30T12:28:43.728Z,994.33